Airfield :
LOGIN :

Register | Disclaimer

   EN    FR    IT 

 










Legend :    VFR   Marginal VFR   IFR   Intensive IFR   Very Intensive IFR
Visi :
Ceiling :
>= 8 km
>= 3000ft
5 to 8 km
1000 to 3000 ft
1500m to 5 km
500 to 1000 ft
800 to 1500m
200 to 500 ft
< 800m
< 200 ft
Symbols :   Thunderstorms  Fog  Heavy snow  Heavy precipitations  Wind > 20 kt
SIGMETs :     Misc.  Thunderstorms  Icing  Turbulence  Mountain Waves  Volcanic Ashes






- Airport Elevation : 1325 ft
- IATA code : EBU


LFMH - St-Etienne Boutheon

CURRENT METAR :
  • 211600Z AUTO 24003KT 190V280 8000 RA OVC008/// ///CB 12/11 Q1021 TEMPO 4500 RA BKN014

EXPIRED METARs :
  • 211530Z AUTO VRB02KT 8000 -RA FEW016/// BKN028/// BKN033/// ///TCU 12/11 Q1020 TEMPO 4500 RA BKN014
  • 211500Z AUTO 28004KT 7000 RA BKN023/// OVC032/// ///TCU 12/11 Q1021 TEMPO 4500 RA BKN014
  • 211430Z AUTO 30002KT 9999 -RA BKN023 OVC028 13/11 Q1020 TEMPO 4500 RA
  • 211400Z AUTO 00000KT 9999 FEW016/// OVC025/// ///TCU 13/11 Q1020 TEMPO 4500 RA BKN020
  • 211330Z AUTO VRB01KT 9999 -RA FEW009/// BKN025/// BKN031/// ///TCU 13/11 Q1020 TEMPO 4500 RA BKN020
  • 211300Z AUTO VRB03KT 9999 SCT029/// OVC039/// ///TCU 13/11 Q1020 BECMG BKN040

TAF TAF LFMH
Valid from the 21 at 15:00 until the 22 at 15:00 UTC


211400Z 2115/2215 VRB03KT 9999 BKN025 BKN040
PROB40
TEMPO 2115/2118 4500 RA BKN014
FM211800 VRB03KT 9999 SCT010 BKN020
PROB40
TEMPO 2118/2204 4000 -RA BR BKN008
FM220400 VRB03KT 8000 BKN008
PROB40
TEMPO 2204/2212 3000 RADZ BR BKN004
TEMPO 2212/2215 34006KT BKN012
ATIS : +33 4 77 36 17 51



MET'MAP, your aeronautical weather chart ! - Copyright ORBIFLY December 2007 - Disclaimer

ORBIFLY MET'MAP TEAM :

Programming & Development : Alexandra Zaïnal
Concept & Development : Baudouin d'Aumeries
Co-Development & Prog : Marc-Olivier Méhu
Technical & hardware support : Manuel Goepfert

Contact : metmap@orbifly.com




SOURCES & CREDITS :

   NOAA